createdAt,value
2022-09-12T00:02:15.154Z,12.75
2022-09-12T00:04:50.872Z,12.81
2022-09-12T00:07:18.958Z,12.72
2022-09-12T00:09:49.658Z,12.55
2022-09-12T00:12:22.924Z,12.50
2022-09-12T00:14:56.380Z,12.48
2022-09-12T00:17:32.626Z,12.41
2022-09-12T00:20:07.430Z,12.42
2022-09-12T00:22:41.459Z,12.49
2022-09-12T00:25:17.305Z,12.59
2022-09-12T00:27:47.470Z,12.65
2022-09-12T00:30:19.960Z,12.63
2022-09-12T00:32:48.059Z,12.68
2022-09-12T00:35:18.533Z,12.67
2022-09-12T00:37:45.981Z,12.49
2022-09-12T00:40:16.445Z,12.42
2022-09-12T00:42:48.857Z,12.46
2022-09-12T00:45:28.447Z,12.48
2022-09-12T00:47:56.873Z,12.52
2022-09-12T00:50:24.807Z,12.55
2022-09-12T00:53:07.371Z,12.47
2022-09-12T00:55:36.996Z,12.34
2022-09-12T00:58:09.750Z,12.46
2022-09-12T01:00:36.897Z,12.33
2022-09-12T01:03:14.802Z,12.48
2022-09-12T01:05:47.017Z,12.37
2022-09-12T01:08:13.831Z,12.32
2022-09-12T01:10:41.057Z,12.36
2022-09-12T01:13:09.284Z,12.28
2022-09-12T01:15:40.025Z,12.25
2022-09-12T01:18:28.430Z,12.21
2022-09-12T01:21:07.116Z,11.97
2022-09-12T01:23:55.101Z,11.82
2022-09-12T01:26:40.100Z,11.74
2022-09-12T01:29:25.399Z,11.67
2022-09-12T01:32:24.118Z,11.57
2022-09-12T01:35:02.688Z,11.74
2022-09-12T01:37:34.290Z,11.77
2022-09-12T01:40:14.747Z,11.64
2022-09-12T01:43:21.347Z,11.60
2022-09-12T01:45:57.037Z,11.47
2022-09-12T01:48:31.315Z,11.56
2022-09-12T01:51:14.028Z,11.56
2022-09-12T01:53:51.549Z,11.51
2022-09-12T01:56:26.879Z,11.48
2022-09-12T01:59:04.020Z,11.66
2022-09-12T02:01:42.023Z,11.68
2022-09-12T02:04:34.226Z,11.71
2022-09-12T02:07:11.029Z,11.76
2022-09-12T02:09:47.731Z,11.61
2022-09-12T02:12:17.618Z,11.42
2022-09-12T02:14:52.143Z,11.33
2022-09-12T02:17:21.604Z,11.29
2022-09-12T02:20:14.594Z,11.30
2022-09-12T02:22:48.658Z,11.26
2022-09-12T02:25:18.192Z,11.22
2022-09-12T02:27:48.378Z,11.14
2022-09-12T02:30:19.635Z,11.13
2022-09-12T02:33:01.830Z,11.13
2022-09-12T02:35:50.293Z,11.09
2022-09-12T02:38:37.159Z,11.06
2022-09-12T02:41:04.105Z,10.96
2022-09-12T02:43:33.713Z,11.03
2022-09-12T02:46:09.381Z,11.02
2022-09-12T02:48:45.384Z,10.98
2022-09-12T02:51:20.305Z,11.06
2022-09-12T02:53:51.949Z,11.13
2022-09-12T02:56:30.281Z,11.28
2022-09-12T02:59:08.002Z,11.26
2022-09-12T03:01:57.582Z,11.21
2022-09-12T03:04:30.309Z,11.08
2022-09-12T03:07:18.680Z,11.05
2022-09-12T03:10:01.546Z,10.97
2022-09-12T03:13:05.007Z,11.03
2022-09-12T03:16:04.242Z,11.00
2022-09-12T03:18:45.839Z,10.93
2022-09-12T03:21:26.534Z,10.85
2022-09-12T03:24:16.641Z,10.77
2022-09-12T03:26:48.120Z,10.75
2022-09-12T03:29:15.493Z,10.84
2022-09-12T03:31:50.117Z,10.82
2022-09-12T03:34:16.881Z,10.76
2022-09-12T03:36:43.540Z,10.71
2022-09-12T03:39:10.187Z,10.53
2022-09-12T03:41:36.919Z,10.46
2022-09-12T03:44:04.703Z,10.30
2022-09-12T03:46:31.365Z,10.35
2022-09-12T03:48:58.176Z,10.17
2022-09-12T03:51:24.883Z,9.99
2022-09-12T03:53:51.681Z,10.07
2022-09-12T03:56:19.474Z,10.02
2022-09-12T03:58:46.475Z,10.09
2022-09-12T04:01:15.915Z,10.15
2022-09-12T04:03:44.160Z,10.09
2022-09-12T04:06:13.339Z,9.94
2022-09-12T04:08:40.311Z,9.77
2022-09-12T04:11:15.006Z,9.78
2022-09-12T04:13:43.372Z,9.92
2022-09-12T04:16:10.835Z,9.88
2022-09-12T04:18:37.574Z,9.88
2022-09-12T04:21:07.077Z,9.95
2022-09-12T04:23:33.968Z,9.76
2022-09-12T04:26:02.280Z,9.93
2022-09-12T04:28:30.109Z,10.09
2022-09-12T04:30:57.531Z,10.13
2022-09-12T04:33:24.265Z,10.27
2022-09-12T04:35:50.960Z,10.31
2022-09-12T04:38:17.620Z,10.44
2022-09-12T04:40:44.285Z,10.27
2022-09-12T04:43:14.422Z,10.32
2022-09-12T04:45:41.494Z,10.38
2022-09-12T04:48:08.152Z,10.35
2022-09-12T04:50:34.784Z,10.58
2022-09-12T04:53:01.555Z,10.64
2022-09-12T04:55:28.234Z,10.58
2022-09-12T04:57:54.960Z,10.41
2022-09-12T05:00:21.847Z,10.35
2022-09-12T05:02:48.566Z,10.44
2022-09-12T05:05:15.373Z,10.49
2022-09-12T05:12:03.170Z,10.24
2022-09-12T05:14:25.615Z,10.22
2022-09-12T05:16:52.247Z,10.27
2022-09-12T05:19:18.888Z,10.33
2022-09-12T05:21:45.532Z,10.29
2022-09-12T05:24:12.194Z,10.33
2022-09-12T05:26:38.865Z,10.47
2022-09-12T05:29:07.183Z,10.56
2022-09-12T05:31:34.036Z,10.51
2022-09-12T05:34:00.694Z,10.54
2022-09-12T05:36:30.615Z,10.59
2022-09-12T05:38:57.247Z,10.67
2022-09-12T05:41:32.983Z,10.77
2022-09-12T05:44:05.355Z,10.80
2022-09-12T05:46:37.183Z,10.89
2022-09-12T05:49:05.722Z,10.96
2022-09-12T05:51:34.729Z,10.97
2022-09-12T05:54:03.442Z,11.00
2022-09-12T05:56:32.295Z,11.08
2022-09-12T05:59:04.138Z,11.10
2022-09-12T06:01:32.199Z,11.17
2022-09-12T06:04:02.715Z,11.24
2022-09-12T06:06:30.419Z,11.31
2022-09-12T06:09:00.649Z,11.46
2022-09-12T06:11:29.692Z,11.48
2022-09-12T06:13:57.951Z,11.58
2022-09-12T06:16:27.065Z,11.72
2022-09-12T06:18:57.790Z,11.74
2022-09-12T06:21:26.596Z,11.87
2022-09-12T06:23:55.186Z,12.05
2022-09-12T06:26:23.607Z,12.17
2022-09-12T06:28:50.656Z,12.32
2022-09-12T06:31:20.913Z,12.41
2022-09-12T06:33:50.317Z,12.51
2022-09-12T06:36:19.746Z,12.64
2022-09-12T06:38:46.530Z,12.76
2022-09-12T06:41:13.755Z,12.93
2022-09-12T06:43:41.529Z,12.90
2022-09-12T06:46:09.656Z,12.91
2022-09-12T06:48:41.590Z,12.95
2022-09-12T06:51:17.320Z,13.05
2022-09-12T06:53:44.824Z,13.05
2022-09-12T06:56:14.055Z,13.05
2022-09-12T06:58:41.841Z,13.18
2022-09-12T07:01:14.259Z,13.14
2022-09-12T07:03:41.825Z,13.19
2022-09-12T07:06:11.048Z,13.34
2022-09-12T07:08:38.594Z,13.37
2022-09-12T07:11:26.188Z,13.28
2022-09-12T07:13:56.145Z,13.38
2022-09-12T07:16:23.821Z,13.53
2022-09-12T07:18:52.514Z,13.66
2022-09-12T07:21:19.604Z,13.68
2022-09-12T07:23:46.971Z,13.75
2022-09-12T07:26:15.015Z,13.79
2022-09-12T07:28:42.022Z,13.88
2022-09-12T07:31:14.502Z,13.99
2022-09-12T07:33:42.121Z,13.99
2022-09-12T07:36:12.330Z,14.11
2022-09-12T07:38:39.566Z,14.18
2022-09-12T07:41:23.702Z,14.07
2022-09-12T07:43:54.897Z,14.08
2022-09-12T07:46:22.542Z,14.20
2022-09-12T07:48:50.211Z,14.39
2022-09-12T07:51:17.538Z,14.65
2022-09-12T07:53:44.343Z,14.66
2022-09-12T07:56:12.202Z,14.75
2022-09-12T07:58:43.294Z,14.72
2022-09-12T08:01:13.981Z,14.82
2022-09-12T08:03:41.218Z,15.00
2022-09-12T08:06:14.055Z,15.24
2022-09-12T08:08:41.220Z,15.20
2022-09-12T08:11:10.505Z,15.30
2022-09-12T08:13:38.405Z,15.43
2022-09-12T08:16:08.227Z,15.41
2022-09-12T08:18:36.447Z,15.44
2022-09-12T08:21:08.421Z,15.64
2022-09-12T08:23:35.160Z,15.74
2022-09-12T08:26:06.368Z,15.87
2022-09-12T08:28:35.115Z,15.85
2022-09-12T08:31:03.379Z,15.88
2022-09-12T08:33:33.753Z,15.88
2022-09-12T08:36:10.423Z,15.56
2022-09-12T08:38:38.853Z,15.60
2022-09-12T08:41:15.377Z,15.73
2022-09-12T08:44:03.359Z,16.00
2022-09-12T08:47:04.192Z,16.22
2022-09-12T08:49:36.999Z,16.08
2022-09-12T08:52:09.852Z,16.04
2022-09-12T08:54:36.570Z,15.99
2022-09-12T08:57:04.719Z,15.99
2022-09-12T08:59:37.014Z,15.87
2022-09-12T09:02:13.854Z,15.83
2022-09-12T09:04:51.616Z,15.92
2022-09-12T09:07:50.341Z,16.21
2022-09-12T09:10:32.729Z,16.09
2022-09-12T09:13:40.809Z,16.37
2022-09-12T09:16:13.894Z,16.33
2022-09-12T09:18:45.919Z,16.45
2022-09-12T09:21:21.942Z,16.65
2022-09-12T09:23:53.012Z,16.59
2022-09-12T09:26:26.672Z,16.53
2022-09-12T09:29:06.563Z,16.55
2022-09-12T09:31:38.113Z,16.44
2022-09-12T09:34:14.769Z,16.45
2022-09-12T09:37:07.230Z,16.62
2022-09-12T09:39:52.432Z,16.54
2022-09-12T09:42:41.944Z,16.51
2022-09-12T09:45:17.544Z,16.79
2022-09-12T09:47:47.158Z,16.95
2022-09-12T09:50:16.933Z,17.02
2022-09-12T09:52:44.006Z,17.15
2022-09-12T09:55:17.661Z,17.19
2022-09-12T09:57:45.594Z,17.13
2022-09-12T10:00:32.237Z,17.21
2022-09-12T10:03:13.935Z,17.27
2022-09-12T10:05:51.430Z,17.12
2022-09-12T10:08:26.760Z,17.25
2022-09-12T10:11:07.584Z,17.32
2022-09-12T10:13:35.792Z,17.36
2022-09-12T10:16:06.174Z,17.64
2022-09-12T10:18:43.024Z,17.59
2022-09-12T10:21:15.543Z,17.82
2022-09-12T10:23:42.486Z,17.86
2022-09-12T10:26:11.492Z,17.68
2022-09-12T10:28:49.733Z,17.79
2022-09-12T10:31:29.026Z,17.85
2022-09-12T10:33:59.981Z,17.84
2022-09-12T10:36:36.015Z,18.03
2022-09-12T10:39:02.891Z,18.31
2022-09-12T10:41:37.229Z,18.67
2022-09-12T10:44:09.981Z,18.90
2022-09-12T10:46:36.656Z,19.13
2022-09-12T10:49:14.095Z,19.24
2022-09-12T10:51:40.841Z,19.30
2022-09-12T10:54:10.444Z,19.21
2022-09-12T10:57:02.128Z,19.25
2022-09-12T10:59:41.207Z,19.28
2022-09-12T11:02:31.156Z,19.35
2022-09-12T11:05:37.394Z,19.15
2022-09-12T11:08:29.407Z,18.73
2022-09-12T11:11:39.259Z,18.58
2022-09-12T11:14:54.162Z,18.57
2022-09-12T11:17:54.858Z,18.79
2022-09-12T11:20:30.541Z,18.83
2022-09-12T11:23:25.082Z,18.55
2022-09-12T11:26:19.265Z,18.61
2022-09-12T11:29:16.132Z,18.68
2022-09-12T11:31:55.663Z,18.77
2022-09-12T11:34:53.474Z,18.77
2022-09-12T11:37:43.760Z,18.99
2022-09-12T11:40:20.597Z,19.21
2022-09-12T11:42:49.817Z,19.59
2022-09-12T11:45:23.462Z,19.94
2022-09-12T11:47:53.849Z,19.86
2022-09-12T11:50:26.406Z,19.73
2022-09-12T11:52:58.206Z,19.57
2022-09-12T11:55:28.382Z,19.30
2022-09-12T11:57:56.723Z,19.42
2022-09-12T12:00:28.077Z,19.53
2022-09-12T12:03:14.312Z,19.46
2022-09-12T12:06:06.242Z,19.42
2022-09-12T12:08:38.518Z,19.45
2022-09-12T12:11:08.157Z,19.50
2022-09-12T12:13:39.426Z,19.42
2022-09-12T12:16:25.362Z,19.54
2022-09-12T12:18:59.343Z,19.84
2022-09-12T12:21:32.137Z,20.03
2022-09-12T12:24:08.014Z,20.29
2022-09-12T12:26:44.481Z,20.21
2022-09-12T12:29:17.219Z,20.18
2022-09-12T12:31:59.281Z,20.38
2022-09-12T12:34:29.931Z,20.28
2022-09-12T12:36:56.789Z,20.16
2022-09-12T12:39:43.487Z,20.16
2022-09-12T12:42:10.337Z,20.32
2022-09-12T12:44:47.339Z,20.58
2022-09-12T12:47:20.348Z,20.82
2022-09-12T12:50:10.445Z,20.76
2022-09-12T12:52:47.686Z,20.35
2022-09-12T12:55:22.926Z,20.50
2022-09-12T12:57:51.374Z,20.68
2022-09-12T13:00:21.120Z,20.88
2022-09-12T13:03:02.118Z,20.95
2022-09-12T13:05:31.402Z,20.82
2022-09-12T13:08:10.233Z,20.63
2022-09-12T13:10:37.117Z,20.72
2022-09-12T13:13:07.033Z,20.79
2022-09-12T13:15:36.797Z,21.11
2022-09-12T13:18:11.442Z,21.27
2022-09-12T13:20:48.426Z,20.77
2022-09-12T13:23:26.319Z,20.31
2022-09-12T13:25:55.463Z,20.14
2022-09-12T13:28:22.342Z,20.35
2022-09-12T13:30:58.600Z,20.27
2022-09-12T13:33:39.781Z,20.57
2022-09-12T13:36:13.543Z,20.82
2022-09-12T13:39:08.639Z,21.13
2022-09-12T13:42:03.295Z,21.03
2022-09-12T13:44:31.173Z,21.37
2022-09-12T13:47:00.505Z,21.32
2022-09-12T13:49:35.283Z,21.04
2022-09-12T13:52:04.312Z,20.71
2022-09-12T13:54:31.486Z,20.59
2022-09-12T13:56:59.816Z,20.85
2022-09-12T13:59:26.530Z,20.76
2022-09-12T14:01:53.231Z,20.47
2022-09-12T14:04:41.277Z,20.46
2022-09-12T14:07:20.326Z,20.57
2022-09-12T14:09:57.127Z,20.69
2022-09-12T14:12:34.287Z,20.77
2022-09-12T14:15:01.428Z,20.86
2022-09-12T14:17:36.210Z,20.72
2022-09-12T14:20:08.986Z,20.62
2022-09-12T14:22:36.464Z,20.55
2022-09-12T14:25:04.053Z,20.46
2022-09-12T14:27:41.341Z,20.12
2022-09-12T14:30:19.115Z,20.36
2022-09-12T14:33:11.492Z,20.38
2022-09-12T14:35:43.115Z,20.24
2022-09-12T14:38:10.138Z,20.33
2022-09-12T14:40:48.591Z,20.54
2022-09-12T14:43:21.806Z,20.66
2022-09-12T14:45:59.797Z,20.73
2022-09-12T14:48:29.330Z,20.65
2022-09-12T14:50:56.016Z,20.56
2022-09-12T14:53:37.382Z,20.53
2022-09-12T14:56:12.515Z,20.20
2022-09-12T14:58:40.717Z,19.73
2022-09-12T15:01:07.394Z,19.69
2022-09-12T15:03:51.926Z,19.92
2022-09-12T15:06:30.826Z,20.04
2022-09-12T15:09:00.463Z,20.11
2022-09-12T15:11:27.106Z,20.12
2022-09-12T15:13:54.562Z,20.11
2022-09-12T15:16:21.336Z,20.17
2022-09-12T15:18:48.020Z,20.11
2022-09-12T15:21:17.889Z,19.90
2022-09-12T15:23:46.241Z,19.66
2022-09-12T15:26:15.335Z,19.68
2022-09-12T15:28:42.049Z,19.59
2022-09-12T15:31:16.133Z,19.58
2022-09-12T15:33:42.905Z,19.62
2022-09-12T15:36:15.528Z,19.43
2022-09-12T15:38:42.787Z,19.33
2022-09-12T15:41:15.564Z,19.19
2022-09-12T15:43:42.398Z,19.07
2022-09-12T15:46:13.465Z,18.98
2022-09-12T15:48:40.424Z,18.98
2022-09-12T15:51:15.774Z,19.13
2022-09-12T15:53:43.140Z,19.14
2022-09-12T15:56:10.182Z,19.21
2022-09-12T15:58:49.756Z,19.17
2022-09-12T16:01:24.497Z,19.19
2022-09-12T16:03:51.201Z,19.25
2022-09-12T16:06:17.937Z,19.27
2022-09-12T16:08:44.809Z,19.26
2022-09-12T16:11:23.034Z,18.96
2022-09-12T16:13:51.986Z,18.83
2022-09-12T16:16:18.758Z,18.85
2022-09-12T16:18:45.640Z,18.88
2022-09-12T16:21:15.527Z,18.83
2022-09-12T16:23:47.183Z,18.82
2022-09-12T16:26:14.436Z,18.79
2022-09-12T16:28:41.414Z,18.72
2022-09-12T16:31:11.299Z,18.71
2022-09-12T16:33:39.123Z,18.67
2022-09-12T16:36:11.577Z,18.66
2022-09-12T16:38:46.935Z,18.58
2022-09-12T16:41:17.921Z,18.55
2022-09-12T16:43:45.801Z,18.56
2022-09-12T16:46:16.660Z,18.50
2022-09-12T16:48:52.675Z,18.43
2022-09-12T16:51:21.947Z,18.39
2022-09-12T16:53:49.410Z,18.32
2022-09-12T16:56:22.707Z,18.29
2022-09-12T16:58:50.792Z,18.21
2022-09-12T17:01:20.358Z,18.20
2022-09-12T17:03:47.700Z,18.13
2022-09-12T17:06:16.898Z,18.09
2022-09-12T17:08:49.529Z,18.05
2022-09-12T17:11:22.067Z,17.98
2022-09-12T17:14:04.289Z,17.95
2022-09-12T17:16:35.921Z,17.93
2022-09-12T17:19:03.234Z,17.88
2022-09-12T17:21:30.203Z,17.82
2022-09-12T17:23:56.912Z,17.72
2022-09-12T17:26:23.631Z,17.65
2022-09-12T17:28:50.676Z,17.60
2022-09-12T17:31:17.487Z,17.55
2022-09-12T17:33:44.226Z,17.47
2022-09-12T17:36:15.206Z,17.43
2022-09-12T17:38:43.604Z,17.39
2022-09-12T17:41:18.904Z,17.34
2022-09-12T17:43:47.503Z,17.31
2022-09-12T17:46:14.712Z,17.26
2022-09-12T17:48:41.858Z,17.21
2022-09-12T17:51:13.751Z,17.15
2022-09-12T17:53:41.515Z,17.04
2022-09-12T17:56:09.380Z,17.04
2022-09-12T17:58:38.613Z,17.03
2022-09-12T18:01:26.475Z,17.00
2022-09-12T18:03:56.815Z,16.83
2022-09-12T18:06:24.519Z,16.76
2022-09-12T18:08:51.241Z,16.85
2022-09-12T18:11:18.186Z,16.81
2022-09-12T18:13:46.314Z,16.79
2022-09-12T18:16:13.925Z,16.77
2022-09-12T18:18:41.076Z,16.60
2022-09-12T18:21:09.110Z,16.60
2022-09-12T18:23:35.797Z,16.54
2022-09-12T18:26:04.710Z,16.48
2022-09-12T18:28:35.578Z,16.44
2022-09-12T18:31:02.563Z,16.43
2022-09-12T18:33:29.233Z,16.43
2022-09-12T18:35:55.907Z,16.42
2022-09-12T18:38:22.797Z,16.33
2022-09-12T18:40:49.742Z,16.32
2022-09-12T18:43:16.690Z,16.26
2022-09-12T18:45:43.350Z,16.20
2022-09-12T18:48:10.399Z,16.16
2022-09-12T18:50:37.039Z,16.14
2022-09-12T18:53:03.673Z,16.14
2022-09-12T18:55:30.883Z,16.12
2022-09-12T18:57:58.956Z,16.10
2022-09-12T19:00:26.010Z,15.98
2022-09-12T19:02:53.060Z,15.97
2022-09-12T19:05:19.794Z,15.91
2022-09-12T19:07:46.732Z,15.87
2022-09-12T19:10:13.460Z,15.81
2022-09-12T19:12:40.200Z,15.74
2022-09-12T19:15:09.844Z,15.70
2022-09-12T19:17:36.824Z,15.62
2022-09-12T19:20:05.875Z,15.49
2022-09-12T19:22:32.594Z,15.34
2022-09-12T19:24:59.214Z,15.33
2022-09-12T19:27:25.943Z,15.32
2022-09-12T19:29:53.169Z,15.23
2022-09-12T19:32:20.113Z,15.25
2022-09-12T19:34:46.833Z,15.25
2022-09-12T19:37:13.491Z,15.18
2022-09-12T19:39:44.441Z,15.19
2022-09-12T19:42:11.983Z,15.12
2022-09-12T19:44:38.881Z,15.13
2022-09-12T19:47:05.571Z,15.12
2022-09-12T19:49:32.442Z,15.09
2022-09-12T19:52:00.448Z,15.01
2022-09-12T19:54:27.371Z,14.97
2022-09-12T19:56:54.391Z,14.97
2022-09-12T19:59:21.104Z,14.93
2022-09-12T20:01:47.821Z,14.89
2022-09-12T20:04:14.854Z,14.86
2022-09-12T20:06:41.843Z,14.86
2022-09-12T20:09:09.146Z,14.94
2022-09-12T20:11:35.815Z,14.75
2022-09-12T20:14:02.611Z,14.64
2022-09-12T20:16:30.155Z,14.55
2022-09-12T20:18:59.271Z,14.50
2022-09-12T20:21:31.905Z,14.47
2022-09-12T20:24:03.082Z,14.40
2022-09-12T20:26:29.855Z,14.27
2022-09-12T20:28:56.539Z,14.38
2022-09-12T20:31:23.445Z,14.35
2022-09-12T20:33:52.061Z,14.36
2022-09-12T20:36:20.240Z,14.37
2022-09-12T20:38:52.075Z,14.34
2022-09-12T20:41:22.210Z,14.34
2022-09-12T20:43:50.264Z,14.35
2022-09-12T20:46:21.416Z,14.34
2022-09-12T20:48:48.731Z,14.34
2022-09-12T20:51:15.458Z,14.24
2022-09-12T20:53:42.156Z,14.09
2022-09-12T20:56:08.835Z,14.07
2022-09-12T20:58:36.868Z,14.08
2022-09-12T21:01:11.498Z,14.12
2022-09-12T21:03:39.120Z,14.20
2022-09-12T21:06:07.029Z,14.19
2022-09-12T21:08:34.673Z,14.16
2022-09-12T21:11:01.895Z,14.23
2022-09-12T21:13:28.642Z,14.16
2022-09-12T21:16:03.457Z,14.18
2022-09-12T21:18:30.756Z,14.17
2022-09-12T21:20:57.800Z,14.21
2022-09-12T21:23:25.599Z,14.17
2022-09-12T21:25:52.901Z,14.11
2022-09-12T21:28:20.616Z,14.09
2022-09-12T21:30:48.664Z,14.14
2022-09-12T21:33:15.559Z,14.07
2022-09-12T21:35:42.240Z,14.09
2022-09-12T21:38:09.419Z,14.04
2022-09-12T21:40:36.139Z,13.97
2022-09-12T21:43:03.389Z,14.00
2022-09-12T21:45:30.116Z,14.07
2022-09-12T21:48:00.380Z,14.07
2022-09-12T21:50:27.006Z,14.01
2022-09-12T21:52:53.660Z,14.02
2022-09-12T21:55:20.403Z,14.03
2022-09-12T21:57:47.083Z,14.00
2022-09-12T22:00:16.158Z,14.08
2022-09-12T22:02:43.399Z,14.04
2022-09-12T22:05:10.505Z,13.96
2022-09-12T22:07:37.552Z,13.91
2022-09-12T22:10:05.054Z,13.85
2022-09-12T22:12:34.464Z,13.89
2022-09-12T22:15:12.790Z,13.92
2022-09-12T22:17:48.149Z,13.93
2022-09-12T22:20:15.007Z,13.93
2022-09-12T22:23:00.544Z,13.93
2022-09-12T22:25:27.235Z,13.95
2022-09-12T22:27:54.391Z,13.90
2022-09-12T22:30:22.093Z,13.91
2022-09-12T22:32:50.096Z,13.95
2022-09-12T22:35:17.518Z,13.87
2022-09-12T22:37:44.667Z,13.85
2022-09-12T22:40:12.060Z,13.84
2022-09-12T22:42:39.067Z,13.88
2022-09-12T22:45:07.323Z,13.83
2022-09-12T22:47:34.212Z,13.93
2022-09-12T22:50:00.865Z,13.94
2022-09-12T22:52:27.528Z,13.93
2022-09-12T22:54:54.218Z,13.96
2022-09-12T22:57:20.891Z,13.93
2022-09-12T22:59:47.570Z,13.92
2022-09-12T23:02:14.389Z,13.90
2022-09-12T23:04:41.027Z,13.89
2022-09-12T23:07:07.695Z,13.87
2022-09-12T23:09:35.566Z,13.87
2022-09-12T23:12:02.914Z,13.92
2022-09-12T23:14:29.581Z,13.90
2022-09-12T23:16:56.306Z,13.91
2022-09-12T23:19:22.958Z,13.93
2022-09-12T23:21:49.601Z,13.97
2022-09-12T23:24:16.368Z,13.91
2022-09-12T23:26:43.307Z,13.88
2022-09-12T23:29:09.980Z,13.79
2022-09-12T23:31:36.758Z,13.84
2022-09-12T23:34:06.016Z,13.84
2022-09-12T23:36:33.653Z,13.81
2022-09-12T23:39:00.757Z,13.79
2022-09-12T23:41:27.863Z,13.84
2022-09-12T23:43:54.523Z,13.79
2022-09-12T23:46:21.391Z,13.70
2022-09-12T23:48:48.311Z,13.79
2022-09-12T23:51:15.438Z,13.85
2022-09-12T23:54:00.803Z,13.84
2022-09-12T23:56:27.471Z,13.76
2022-09-12T23:58:54.132Z,13.76
